sensor_id;sensor_type;location;lat;lon;timestamp;pressure;altitude;pressure_sealevel;temperature;humidity
71361;BME280;59166;48.908;1.870;2023-02-22T00:04:25;100110.84;;;10.32;87.13
71361;BME280;59166;48.908;1.870;2023-02-22T00:09:27;100102.16;;;10.30;86.96
71361;BME280;59166;48.908;1.870;2023-02-22T00:14:27;100100.00;;;10.22;88.11
71361;BME280;59166;48.908;1.870;2023-02-22T00:19:28;100093.22;;;10.19;87.73
71361;BME280;59166;48.908;1.870;2023-02-22T00:24:31;100084.31;;;10.24;86.56
71361;BME280;59166;48.908;1.870;2023-02-22T00:29:32;100070.13;;;10.49;83.64
71361;BME280;59166;48.908;1.870;2023-02-22T00:34:33;100060.41;;;10.58;84.31
71361;BME280;59166;48.908;1.870;2023-02-22T00:39:35;100061.94;;;10.33;85.18
71361;BME280;59166;48.908;1.870;2023-02-22T00:44:36;100060.84;;;10.24;86.46
71361;BME280;59166;48.908;1.870;2023-02-22T00:49:36;100053.84;;;10.28;85.74
71361;BME280;59166;48.908;1.870;2023-02-22T00:54:38;100047.63;;;10.28;86.03
71361;BME280;59166;48.908;1.870;2023-02-22T00:59:39;100045.44;;;10.20;86.97
71361;BME280;59166;48.908;1.870;2023-02-22T01:04:40;100044.38;;;10.16;87.36
71361;BME280;59166;48.908;1.870;2023-02-22T01:09:42;100037.81;;;10.07;87.57
71361;BME280;59166;48.908;1.870;2023-02-22T01:14:42;100039.94;;;10.00;88.17
71361;BME280;59166;48.908;1.870;2023-02-22T01:19:43;100049.38;;;9.97;88.92
71361;BME280;59166;48.908;1.870;2023-02-22T01:24:45;100040.75;;;9.95;89.14
71361;BME280;59166;48.908;1.870;2023-02-22T01:29:47;100042.88;;;9.93;88.62
71361;BME280;59166;48.908;1.870;2023-02-22T01:34:48;100040.19;;;9.93;88.44
71361;BME280;59166;48.908;1.870;2023-02-22T01:39:53;100045.88;;;9.92;88.08
71361;BME280;59166;48.908;1.870;2023-02-22T01:50:35;100045.03;;;9.91;87.17
71361;BME280;59166;48.908;1.870;2023-02-22T01:55:38;100032.91;;;9.89;88.27
71361;BME280;59166;48.908;1.870;2023-02-22T02:00:39;100023.41;;;9.81;88.47
71361;BME280;59166;48.908;1.870;2023-02-22T02:05:40;100013.97;;;9.83;88.90
71361;BME280;59166;48.908;1.870;2023-02-22T02:10:43;100021.00;;;9.84;88.84
71361;BME280;59166;48.908;1.870;2023-02-22T02:15:44;100018.59;;;9.88;89.08
71361;BME280;59166;48.908;1.870;2023-02-22T02:20:58;100014.78;;;9.84;89.41
71361;BME280;59166;48.908;1.870;2023-02-22T02:26:33;100016.38;;;9.80;90.27
71361;BME280;59166;48.908;1.870;2023-02-22T02:37:36;99997.50;;;9.80;90.15
71361;BME280;59166;48.908;1.870;2023-02-22T02:42:43;99987.75;;;9.74;90.09
71361;BME280;59166;48.908;1.870;2023-02-22T02:47:48;99986.13;;;9.73;90.66
71361;BME280;59166;48.908;1.870;2023-02-22T02:52:54;99994.50;;;9.71;90.32
71361;BME280;59166;48.908;1.870;2023-02-22T02:57:57;99982.84;;;9.66;91.28
71361;BME280;59166;48.908;1.870;2023-02-22T03:03:06;99981.78;;;9.67;90.60
71361;BME280;59166;48.908;1.870;2023-02-22T03:08:14;99975.28;;;9.63;90.84
71361;BME280;59166;48.908;1.870;2023-02-22T03:13:25;99968.81;;;9.59;91.28
71361;BME280;59166;48.908;1.870;2023-02-22T03:18:33;99967.72;;;9.55;91.29
71361;BME280;59166;48.908;1.870;2023-02-22T03:23:45;99970.09;;;9.46;91.92
71361;BME280;59166;48.908;1.870;2023-02-22T03:28:51;99974.41;;;9.47;92.59
71361;BME280;59166;48.908;1.870;2023-02-22T03:33:56;99973.59;;;9.42;92.65
71361;BME280;59166;48.908;1.870;2023-02-22T03:39:01;99977.34;;;9.46;93.01
71361;BME280;59166;48.908;1.870;2023-02-22T03:44:05;99973.88;;;9.45;93.22
71361;BME280;59166;48.908;1.870;2023-02-22T03:49:09;99973.28;;;9.38;93.72
71361;BME280;59166;48.908;1.870;2023-02-22T03:54:13;99965.44;;;9.37;93.54
71361;BME280;59166;48.908;1.870;2023-02-22T03:59:13;99965.97;;;9.33;93.39
71361;BME280;59166;48.908;1.870;2023-02-22T04:04:14;99960.56;;;9.28;93.36
71361;BME280;59166;48.908;1.870;2023-02-22T04:09:16;99962.38;;;9.18;94.16
71361;BME280;59166;48.908;1.870;2023-02-22T04:14:17;99971.25;;;9.18;93.60
71361;BME280;59166;48.908;1.870;2023-02-22T04:19:18;99956.41;;;9.11;93.88
71361;BME280;59166;48.908;1.870;2023-02-22T04:24:20;99958.75;;;9.02;94.31
71361;BME280;59166;48.908;1.870;2023-02-22T04:29:20;99953.34;;;9.02;94.77
71361;BME280;59166;48.908;1.870;2023-02-22T04:34:21;99951.69;;;8.91;94.97
71361;BME280;59166;48.908;1.870;2023-02-22T04:39:23;99953.78;;;8.89;95.72
71361;BME280;59166;48.908;1.870;2023-02-22T04:44:24;99962.38;;;8.86;95.35
71361;BME280;59166;48.908;1.870;2023-02-22T04:49:24;99956.94;;;8.81;95.64
71361;BME280;59166;48.908;1.870;2023-02-22T04:54:26;99956.66;;;8.77;95.84
71361;BME280;59166;48.908;1.870;2023-02-22T04:59:27;99957.34;;;8.68;96.16
71361;BME280;59166;48.908;1.870;2023-02-22T05:04:27;99952.47;;;8.65;96.53
71361;BME280;59166;48.908;1.870;2023-02-22T05:09:29;99961.66;;;8.64;96.96
71361;BME280;59166;48.908;1.870;2023-02-22T05:14:31;99960.53;;;8.60;97.38
71361;BME280;59166;48.908;1.870;2023-02-22T05:19:32;99973.41;;;8.58;97.84
71361;BME280;59166;48.908;1.870;2023-02-22T05:24:34;99954.53;;;8.53;97.12
71361;BME280;59166;48.908;1.870;2023-02-22T05:29:34;99963.38;;;8.48;97.99
71361;BME280;59166;48.908;1.870;2023-02-22T05:34:35;99961.97;;;8.41;99.55
71361;BME280;59166;48.908;1.870;2023-02-22T05:39:37;99968.16;;;8.41;99.05
71361;BME280;59166;48.908;1.870;2023-02-22T05:44:38;99983.13;;;8.32;99.52
71361;BME280;59166;48.908;1.870;2023-02-22T05:49:38;99981.16;;;8.22;99.78
71361;BME280;59166;48.908;1.870;2023-02-22T05:54:40;99975.69;;;8.17;100.00
71361;BME280;59166;48.908;1.870;2023-02-22T05:59:41;99964.94;;;8.17;100.00
71361;BME280;59166;48.908;1.870;2023-02-22T06:04:43;99971.44;;;8.21;100.00
71361;BME280;59166;48.908;1.870;2023-02-22T06:09:45;99991.06;;;8.17;100.00
71361;BME280;59166;48.908;1.870;2023-02-22T06:14:45;99992.84;;;8.11;100.00
71361;BME280;59166;48.908;1.870;2023-02-22T06:19:46;99980.22;;;8.12;100.00
71361;BME280;59166;48.908;1.870;2023-02-22T06:24:48;99951.19;;;8.14;100.00
71361;BME280;59166;48.908;1.870;2023-02-22T06:29:49;99958.16;;;8.10;100.00
71361;BME280;59166;48.908;1.870;2023-02-22T06:34:49;99978.78;;;8.04;100.00
71361;BME280;59166;48.908;1.870;2023-02-22T06:39:51;99984.66;;;8.01;100.00
71361;BME280;59166;48.908;1.870;2023-02-22T06:44:52;99984.66;;;8.01;100.00
71361;BME280;59166;48.908;1.870;2023-02-22T06:49:53;99983.66;;;8.07;100.00
71361;BME280;59166;48.908;1.870;2023-02-22T06:54:55;99978.22;;;8.02;100.00
71361;BME280;59166;48.908;1.870;2023-02-22T06:59:56;99978.16;;;7.97;100.00
71361;BME280;59166;48.908;1.870;2023-02-22T07:04:56;100002.25;;;7.87;100.00
71361;BME280;59166;48.908;1.870;2023-02-22T07:09:58;100030.13;;;7.81;100.00
71361;BME280;59166;48.908;1.870;2023-02-22T07:14:59;100037.69;;;7.84;100.00
71361;BME280;59166;48.908;1.870;2023-02-22T07:20:00;100034.47;;;7.82;100.00
71361;BME280;59166;48.908;1.870;2023-02-22T07:25:02;100033.63;;;7.82;100.00
71361;BME280;59166;48.908;1.870;2023-02-22T07:30:03;100036.50;;;7.75;100.00
71361;BME280;59166;48.908;1.870;2023-02-22T07:35:05;100030.09;;;7.76;100.00
71361;BME280;59166;48.908;1.870;2023-02-22T07:40:08;100026.94;;;7.84;100.00
71361;BME280;59166;48.908;1.870;2023-02-22T07:45:09;100044.72;;;7.85;100.00
71361;BME280;59166;48.908;1.870;2023-02-22T07:50:09;100054.97;;;7.88;100.00
71361;BME280;59166;48.908;1.870;2023-02-22T07:55:13;100058.47;;;7.89;100.00
71361;BME280;59166;48.908;1.870;2023-02-22T08:00:19;100050.78;;;7.97;100.00
71361;BME280;59166;48.908;1.870;2023-02-22T08:05:24;100060.47;;;7.98;100.00
71361;BME280;59166;48.908;1.870;2023-02-22T08:10:26;100065.00;;;7.93;100.00
71361;BME280;59166;48.908;1.870;2023-02-22T08:15:29;100069.09;;;8.00;100.00
71361;BME280;59166;48.908;1.870;2023-02-22T08:20:30;100072.78;;;7.94;100.00
71361;BME280;59166;48.908;1.870;2023-02-22T08:25:33;100072.97;;;7.88;100.00
71361;BME280;59166;48.908;1.870;2023-02-22T08:30:35;100063.91;;;7.94;100.00
71361;BME280;59166;48.908;1.870;2023-02-22T08:35:35;100078.34;;;7.88;100.00
71361;BME280;59166;48.908;1.870;2023-02-22T08:40:38;100063.03;;;7.88;100.00
71361;BME280;59166;48.908;1.870;2023-02-22T08:45:38;100077.22;;;7.84;100.00
71361;BME280;59166;48.908;1.870;2023-02-22T08:50:39;100080.53;;;7.91;100.00
71361;BME280;59166;48.908;1.870;2023-02-22T08:55:42;100067.69;;;7.93;100.00
71361;BME280;59166;48.908;1.870;2023-02-22T09:00:43;100081.75;;;8.00;100.00
71361;BME280;59166;48.908;1.870;2023-02-22T09:05:43;100109.41;;;7.95;100.00
71361;BME280;59166;48.908;1.870;2023-02-22T09:10:45;100099.59;;;8.06;100.00
71361;BME280;59166;48.908;1.870;2023-02-22T09:15:46;100086.19;;;8.11;100.00
71361;BME280;59166;48.908;1.870;2023-02-22T09:20:47;100097.78;;;8.11;100.00
71361;BME280;59166;48.908;1.870;2023-02-22T09:25:49;100083.59;;;8.16;100.00
71361;BME280;59166;48.908;1.870;2023-02-22T09:30:50;100073.13;;;8.19;100.00
71361;BME280;59166;48.908;1.870;2023-02-22T09:35:50;100083.41;;;8.22;100.00
71361;BME280;59166;48.908;1.870;2023-02-22T09:41:03;100081.75;;;8.21;100.00
71361;BME280;59166;48.908;1.870;2023-02-22T09:46:14;100083.31;;;8.17;100.00
71361;BME280;59166;48.908;1.870;2023-02-22T09:51:18;100080.56;;;8.12;100.00
71361;BME280;59166;48.908;1.870;2023-02-22T09:56:23;100084.59;;;8.10;100.00
71361;BME280;59166;48.908;1.870;2023-02-22T10:01:29;100099.31;;;8.07;100.00
71361;BME280;59166;48.908;1.870;2023-02-22T10:06:33;100092.34;;;8.06;100.00
71361;BME280;59166;48.908;1.870;2023-02-22T10:11:49;100097.72;;;8.06;100.00
71361;BME280;59166;48.908;1.870;2023-02-22T10:16:56;100100.91;;;8.03;100.00
71361;BME280;59166;48.908;1.870;2023-02-22T10:22:38;100088.25;;;8.04;100.00
71361;BME280;59166;48.908;1.870;2023-02-22T10:27:47;100093.94;;;8.07;100.00
71361;BME280;59166;48.908;1.870;2023-02-22T10:32:56;100102.66;;;8.14;100.00
71361;BME280;59166;48.908;1.870;2023-02-22T10:38:01;100093.69;;;8.30;100.00
71361;BME280;59166;48.908;1.870;2023-02-22T10:43:08;100081.88;;;8.53;100.00
71361;BME280;59166;48.908;1.870;2023-02-22T10:48:12;100084.63;;;8.58;100.00
71361;BME280;59166;48.908;1.870;2023-02-22T10:53:13;100082.22;;;8.62;100.00
71361;BME280;59166;48.908;1.870;2023-02-22T10:58:16;100079.84;;;8.65;100.00
71361;BME280;59166;48.908;1.870;2023-02-22T11:03:18;100083.59;;;8.64;100.00
71361;BME280;59166;48.908;1.870;2023-02-22T11:08:24;100083.88;;;8.63;100.00
71361;BME280;59166;48.908;1.870;2023-02-22T11:13:29;100085.72;;;8.57;100.00
71361;BME280;59166;48.908;1.870;2023-02-22T11:18:33;100089.19;;;8.58;100.00
71361;BME280;59166;48.908;1.870;2023-02-22T11:23:35;100081.19;;;8.63;100.00
71361;BME280;59166;48.908;1.870;2023-02-22T11:28:40;100073.09;;;8.63;100.00
71361;BME280;59166;48.908;1.870;2023-02-22T11:33:48;100082.00;;;8.63;100.00
71361;BME280;59166;48.908;1.870;2023-02-22T11:38:53;100073.63;;;8.87;100.00
71361;BME280;59166;48.908;1.870;2023-02-22T11:44:12;100078.91;;;9.03;100.00
71361;BME280;59166;48.908;1.870;2023-02-22T11:49:13;100077.34;;;9.07;100.00
71361;BME280;59166;48.908;1.870;2023-02-22T11:54:28;100073.78;;;9.02;100.00
71361;BME280;59166;48.908;1.870;2023-02-22T11:59:37;100068.59;;;8.95;100.00
71361;BME280;59166;48.908;1.870;2023-02-22T12:05:04;100062.44;;;8.95;100.00
71361;BME280;59166;48.908;1.870;2023-02-22T12:10:17;100050.25;;;8.92;100.00
71361;BME280;59166;48.908;1.870;2023-02-22T12:15:28;100057.28;;;8.93;100.00
71361;BME280;59166;48.908;1.870;2023-02-22T12:20:36;100059.00;;;9.04;100.00
71361;BME280;59166;48.908;1.870;2023-02-22T12:25:40;100054.59;;;8.93;100.00
71361;BME280;59166;48.908;1.870;2023-02-22T12:30:51;100053.22;;;8.91;100.00
71361;BME280;59166;48.908;1.870;2023-02-22T12:35:57;100052.28;;;8.80;100.00
71361;BME280;59166;48.908;1.870;2023-02-22T12:41:02;100047.50;;;8.87;100.00
71361;BME280;59166;48.908;1.870;2023-02-22T12:46:11;100048.94;;;8.95;100.00
71361;BME280;59166;48.908;1.870;2023-02-22T12:51:24;100040.59;;;8.96;100.00
71361;BME280;59166;48.908;1.870;2023-02-22T12:56:30;100041.13;;;8.93;100.00
71361;BME280;59166;48.908;1.870;2023-02-22T13:01:37;100034.09;;;8.92;100.00
71361;BME280;59166;48.908;1.870;2023-02-22T13:06:44;100036.06;;;9.02;100.00
71361;BME280;59166;48.908;1.870;2023-02-22T13:11:53;100031.69;;;8.96;100.00
71361;BME280;59166;48.908;1.870;2023-02-22T13:17:04;100028.69;;;8.92;100.00
71361;BME280;59166;48.908;1.870;2023-02-22T13:22:14;100028.75;;;8.97;100.00
71361;BME280;59166;48.908;1.870;2023-02-22T13:27:21;100024.19;;;8.98;100.00
71361;BME280;59166;48.908;1.870;2023-02-22T13:32:41;100026.00;;;8.92;100.00
71361;BME280;59166;48.908;1.870;2023-02-22T13:38:04;100020.91;;;8.96;100.00
71361;BME280;59166;48.908;1.870;2023-02-22T13:43:23;100009.09;;;8.97;100.00
71361;BME280;59166;48.908;1.870;2023-02-22T13:48:50;100006.63;;;8.95;100.00
71361;BME280;59166;48.908;1.870;2023-02-22T13:54:02;100011.50;;;8.98;100.00
71361;BME280;59166;48.908;1.870;2023-02-22T14:04:35;100003.25;;;9.05;100.00
71361;BME280;59166;48.908;1.870;2023-02-22T14:09:45;100013.72;;;9.01;100.00
71361;BME280;59166;48.908;1.870;2023-02-22T14:15:07;100007.28;;;9.07;100.00
71361;BME280;59166;48.908;1.870;2023-02-22T14:20:24;100008.34;;;9.06;100.00
71361;BME280;59166;48.908;1.870;2023-02-22T14:25:32;100008.88;;;9.03;100.00
71361;BME280;59166;48.908;1.870;2023-02-22T14:30:36;100007.97;;;8.93;100.00
71361;BME280;59166;48.908;1.870;2023-02-22T14:35:39;100022.28;;;8.98;100.00
71361;BME280;59166;48.908;1.870;2023-02-22T14:40:41;100012.84;;;8.96;100.00
71361;BME280;59166;48.908;1.870;2023-02-22T14:45:48;100008.53;;;8.95;100.00
71361;BME280;59166;48.908;1.870;2023-02-22T14:50:55;99999.72;;;9.04;100.00
71361;BME280;59166;48.908;1.870;2023-02-22T14:56:04;100000.31;;;9.11;100.00
71361;BME280;59166;48.908;1.870;2023-02-22T15:01:22;99998.75;;;9.20;100.00
71361;BME280;59166;48.908;1.870;2023-02-22T15:06:25;100000.34;;;9.16;100.00
71361;BME280;59166;48.908;1.870;2023-02-22T15:11:28;99997.22;;;9.29;100.00
71361;BME280;59166;48.908;1.870;2023-02-22T15:16:32;99990.53;;;9.37;100.00
71361;BME280;59166;48.908;1.870;2023-02-22T15:21:34;99983.19;;;9.32;100.00
71361;BME280;59166;48.908;1.870;2023-02-22T15:26:36;99992.63;;;9.30;100.00
71361;BME280;59166;48.908;1.870;2023-02-22T15:31:38;99999.66;;;9.31;100.00
71361;BME280;59166;48.908;1.870;2023-02-22T15:36:41;99997.94;;;9.20;100.00
71361;BME280;59166;48.908;1.870;2023-02-22T15:41:43;100006.28;;;9.18;100.00
71361;BME280;59166;48.908;1.870;2023-02-22T15:46:43;99993.84;;;9.12;100.00
71361;BME280;59166;48.908;1.870;2023-02-22T15:51:46;100000.81;;;9.08;100.00
71361;BME280;59166;48.908;1.870;2023-02-22T15:56:51;99999.72;;;9.04;100.00
71361;BME280;59166;48.908;1.870;2023-02-22T16:01:52;99994.06;;;9.06;100.00
71361;BME280;59166;48.908;1.870;2023-02-22T16:07:02;99999.47;;;9.06;100.00
71361;BME280;59166;48.908;1.870;2023-02-22T16:12:08;99997.56;;;9.06;100.00
71361;BME280;59166;48.908;1.870;2023-02-22T16:17:12;100003.25;;;9.05;100.00
71361;BME280;59166;48.908;1.870;2023-02-22T16:22:27;99996.22;;;9.04;100.00
71361;BME280;59166;48.908;1.870;2023-02-22T16:27:28;100000.72;;;8.98;100.00
71361;BME280;59166;48.908;1.870;2023-02-22T16:32:28;99997.47;;;8.91;100.00
71361;BME280;59166;48.908;1.870;2023-02-22T16:37:30;100006.03;;;8.88;100.00
71361;BME280;59166;48.908;1.870;2023-02-22T16:42:31;100012.63;;;8.75;100.00
71361;BME280;59166;48.908;1.870;2023-02-22T16:47:31;100011.56;;;8.76;100.00
71361;BME280;59166;48.908;1.870;2023-02-22T16:52:34;100009.69;;;8.77;100.00
71361;BME280;59166;48.908;1.870;2023-02-22T16:57:38;100003.69;;;8.70;100.00
71361;BME280;59166;48.908;1.870;2023-02-22T17:02:40;100006.13;;;8.71;100.00
71361;BME280;59166;48.908;1.870;2023-02-22T17:07:42;100003.41;;;8.66;100.00
71361;BME280;59166;48.908;1.870;2023-02-22T17:12:45;100006.34;;;8.65;100.00
71361;BME280;59166;48.908;1.870;2023-02-22T17:17:46;100011.94;;;8.58;100.00
71361;BME280;59166;48.908;1.870;2023-02-22T17:22:48;100017.31;;;8.58;100.00
71361;BME280;59166;48.908;1.870;2023-02-22T17:27:49;100016.50;;;8.58;100.00
71361;BME280;59166;48.908;1.870;2023-02-22T17:32:50;100017.31;;;8.58;100.00
71361;BME280;59166;48.908;1.870;2023-02-22T17:37:52;100021.63;;;8.59;100.00
71361;BME280;59166;48.908;1.870;2023-02-22T17:42:53;100023.50;;;8.59;100.00
71361;BME280;59166;48.908;1.870;2023-02-22T17:47:53;100029.19;;;8.62;100.00
71361;BME280;59166;48.908;1.870;2023-02-22T17:52:56;100032.66;;;8.58;100.00
71361;BME280;59166;48.908;1.870;2023-02-22T17:57:57;100038.53;;;8.55;100.00
71361;BME280;59166;48.908;1.870;2023-02-22T18:02:59;100040.41;;;8.54;100.00
71361;BME280;59166;48.908;1.870;2023-02-22T18:08:01;100043.09;;;8.54;100.00
71361;BME280;59166;48.908;1.870;2023-02-22T18:13:02;100053.88;;;8.54;100.00
71361;BME280;59166;48.908;1.870;2023-02-22T18:18:03;100049.56;;;8.53;100.00
71361;BME280;59166;48.908;1.870;2023-02-22T18:23:07;100050.09;;;8.50;100.00
71361;BME280;59166;48.908;1.870;2023-02-22T18:28:08;100048.16;;;8.46;100.00
71361;BME280;59166;48.908;1.870;2023-02-22T18:33:09;100051.16;;;8.49;100.00
71361;BME280;59166;48.908;1.870;2023-02-22T18:38:11;100050.09;;;8.50;100.00
71361;BME280;59166;48.908;1.870;2023-02-22T18:43:12;100051.75;;;8.56;100.00
71361;BME280;59166;48.908;1.870;2023-02-22T18:48:13;100056.84;;;8.53;100.00
71361;BME280;59166;48.908;1.870;2023-02-22T18:53:15;100047.69;;;8.54;100.00
71361;BME280;59166;48.908;1.870;2023-02-22T18:58:16;100044.75;;;8.55;100.00
71361;BME280;59166;48.908;1.870;2023-02-22T19:03:16;100033.97;;;8.55;100.00
71361;BME280;59166;48.908;1.870;2023-02-22T19:08:18;100046.06;;;8.53;100.00
71361;BME280;59166;48.908;1.870;2023-02-22T19:13:19;100045.75;;;8.49;100.00
71361;BME280;59166;48.908;1.870;2023-02-22T19:18:20;100048.16;;;8.46;100.00
71361;BME280;59166;48.908;1.870;2023-02-22T19:23:22;100046.50;;;8.45;100.00
71361;BME280;59166;48.908;1.870;2023-02-22T19:28:23;100045.97;;;8.43;100.00
71361;BME280;59166;48.908;1.870;2023-02-22T19:33:24;100049.16;;;8.40;100.00
71361;BME280;59166;48.908;1.870;2023-02-22T19:38:26;100060.47;;;8.42;100.00
71361;BME280;59166;48.908;1.870;2023-02-22T19:43:27;100055.91;;;8.42;100.00
71361;BME280;59166;48.908;1.870;2023-02-22T19:48:28;100049.47;;;8.43;100.00
71361;BME280;59166;48.908;1.870;2023-02-22T19:53:30;100059.16;;;8.44;100.00
71361;BME280;59166;48.908;1.870;2023-02-22T19:58:31;100061.28;;;8.42;100.00
71361;BME280;59166;48.908;1.870;2023-02-22T20:03:32;100056.47;;;8.44;100.00
71361;BME280;59166;48.908;1.870;2023-02-22T20:08:35;100057.84;;;8.47;100.00
71361;BME280;59166;48.908;1.870;2023-02-22T20:13:36;100052.66;;;8.40;100.00
71361;BME280;59166;48.908;1.870;2023-02-22T20:18:37;100062.94;;;8.43;100.00
71361;BME280;59166;48.908;1.870;2023-02-22T20:23:39;100063.75;;;8.44;100.00
71361;BME280;59166;48.908;1.870;2023-02-22T20:28:39;100059.97;;;8.45;100.00
71361;BME280;59166;48.908;1.870;2023-02-22T20:33:40;100066.44;;;8.44;100.00
71361;BME280;59166;48.908;1.870;2023-02-22T20:38:43;100063.34;;;8.35;100.00
71361;BME280;59166;48.908;1.870;2023-02-22T20:43:48;100067.88;;;8.29;100.00
71361;BME280;59166;48.908;1.870;2023-02-22T20:48:52;100073.44;;;8.23;100.00
71361;BME280;59166;48.908;1.870;2023-02-22T20:53:55;100075.25;;;8.17;100.00
71361;BME280;59166;48.908;1.870;2023-02-22T20:58:58;100092.91;;;8.08;100.00
71361;BME280;59166;48.908;1.870;2023-02-22T21:03:59;100091.22;;;8.02;100.00
71361;BME280;59166;48.908;1.870;2023-02-22T21:09:03;100093.03;;;7.97;100.00
71361;BME280;59166;48.908;1.870;2023-02-22T21:14:05;100098.56;;;7.90;100.00
71361;BME280;59166;48.908;1.870;2023-02-22T21:19:06;100100.13;;;7.86;100.00
71361;BME280;59166;48.908;1.870;2023-02-22T21:24:09;100111.38;;;7.83;100.00
71361;BME280;59166;48.908;1.870;2023-02-22T21:29:10;100108.94;;;7.82;100.00
71361;BME280;59166;48.908;1.870;2023-02-22T21:34:12;100108.94;;;7.82;100.00
71361;BME280;59166;48.908;1.870;2023-02-22T21:39:14;100100.63;;;7.83;100.00
71361;BME280;59166;48.908;1.870;2023-02-22T21:44:15;100114.06;;;7.83;100.00
71361;BME280;59166;48.908;1.870;2023-02-22T21:49:17;100102.50;;;7.83;100.00
71361;BME280;59166;48.908;1.870;2023-02-22T21:54:19;100108.69;;;7.83;100.00
71361;BME280;59166;48.908;1.870;2023-02-22T21:59:21;100118.38;;;7.84;100.00
71361;BME280;59166;48.908;1.870;2023-02-22T22:04:23;100122.94;;;7.84;100.00
71361;BME280;59166;48.908;1.870;2023-02-22T22:09:27;100112.34;;;7.77;100.00
71361;BME280;59166;48.908;1.870;2023-02-22T22:14:28;100116.84;;;7.71;100.00
71361;BME280;59166;48.908;1.870;2023-02-22T22:19:30;100114.66;;;7.68;100.00
71361;BME280;59166;48.908;1.870;2023-02-22T22:24:34;100111.97;;;7.68;100.00
71361;BME280;59166;48.908;1.870;2023-02-22T22:29:35;100108.13;;;7.64;100.00
71361;BME280;59166;48.908;1.870;2023-02-22T22:34:36;100108.13;;;7.64;100.00
71361;BME280;59166;48.908;1.870;2023-02-22T22:39:38;100110.00;;;7.64;100.00
71361;BME280;59166;48.908;1.870;2023-02-22T22:44:39;100110.50;;;7.61;100.00
71361;BME280;59166;48.908;1.870;2023-02-22T22:49:40;100102.44;;;7.61;100.00
71361;BME280;59166;48.908;1.870;2023-02-22T22:54:42;100104.56;;;7.59;100.00
71361;BME280;59166;48.908;1.870;2023-02-22T22:59:43;100103.75;;;7.58;100.00
71361;BME280;59166;48.908;1.870;2023-02-22T23:04:44;100107.47;;;7.57;100.00
71361;BME280;59166;48.908;1.870;2023-02-22T23:09:46;100106.09;;;7.55;100.00
71361;BME280;59166;48.908;1.870;2023-02-22T23:14:46;100097.56;;;7.58;100.00
71361;BME280;59166;48.908;1.870;2023-02-22T23:19:47;100087.78;;;7.52;100.00
71361;BME280;59166;48.908;1.870;2023-02-22T23:24:49;100102.28;;;7.51;100.00
71361;BME280;59166;48.908;1.870;2023-02-22T23:29:50;100114.50;;;7.42;100.00
71361;BME280;59166;48.908;1.870;2023-02-22T23:34:51;100111.00;;;7.41;100.00
71361;BME280;59166;48.908;1.870;2023-02-22T23:39:53;100119.88;;;7.42;100.00
71361;BME280;59166;48.908;1.870;2023-02-22T23:44:54;100123.06;;;7.39;100.00
71361;BME280;59166;48.908;1.870;2023-02-22T23:49:55;100111.97;;;7.35;100.00
71361;BME280;59166;48.908;1.870;2023-02-22T23:54:58;100116.59;;;7.23;100.00
71361;BME280;59166;48.908;1.870;2023-02-22T23:59:59;100116.53;;;7.18;100.00
